createdAt,value
2016-08-15T00:00:21.190Z,1018.60
2016-08-15T00:05:19.240Z,1018.60
2016-08-15T00:10:16.834Z,1018.64
2016-08-15T00:15:14.434Z,1018.75
2016-08-15T00:20:12.011Z,1018.68
2016-08-15T00:25:09.843Z,1018.62
2016-08-15T00:30:07.535Z,1018.72
2016-08-15T00:35:05.175Z,1018.70
2016-08-15T00:40:02.870Z,1018.68
2016-08-15T00:45:00.674Z,1018.69
2016-08-15T00:49:58.349Z,1018.74
2016-08-15T00:54:55.953Z,1018.68
2016-08-15T00:59:53.656Z,1018.73
2016-08-15T01:04:51.513Z,1018.74
2016-08-15T01:09:49.242Z,1018.79
2016-08-15T01:14:46.841Z,1018.73
2016-08-15T01:19:44.738Z,1018.79
2016-08-15T01:24:42.498Z,1018.75
2016-08-15T01:29:40.490Z,1018.63
2016-08-15T01:34:38.169Z,1018.65
2016-08-15T01:39:35.923Z,1018.67
2016-08-15T01:44:33.768Z,1018.60
2016-08-15T01:49:31.316Z,1018.51
2016-08-15T01:54:29.065Z,1018.45
2016-08-15T01:59:26.753Z,1018.39
2016-08-15T02:04:24.377Z,1018.48
2016-08-15T02:09:21.978Z,1018.45
2016-08-15T02:14:19.578Z,1018.45
2016-08-15T02:19:17.354Z,1018.50
2016-08-15T02:24:15.190Z,1018.42
2016-08-15T02:29:12.819Z,1018.47
2016-08-15T02:34:10.427Z,1018.44
2016-08-15T02:39:08.114Z,1018.45
2016-08-15T02:44:05.936Z,1018.60
2016-08-15T02:49:03.713Z,1018.60
2016-08-15T02:54:01.500Z,1018.63
2016-08-15T02:58:59.212Z,1018.64
2016-08-15T03:03:56.755Z,1018.54
2016-08-15T03:08:54.388Z,1018.58
2016-08-15T03:13:51.999Z,1018.52
2016-08-15T03:18:49.996Z,1018.48
2016-08-15T03:23:47.575Z,1018.43
2016-08-15T03:28:45.368Z,1018.46
2016-08-15T03:33:43.376Z,1018.41
2016-08-15T03:38:41.215Z,1018.47
2016-08-15T03:43:38.937Z,1018.45
2016-08-15T03:48:36.699Z,1018.46
2016-08-15T03:53:34.563Z,1018.46
2016-08-15T03:58:32.248Z,1018.47
2016-08-15T04:03:30.243Z,1018.50
2016-08-15T04:08:27.892Z,1018.49
2016-08-15T04:13:25.561Z,1018.50
2016-08-15T04:18:23.148Z,1018.55
2016-08-15T04:23:20.606Z,1018.58
2016-08-15T04:28:18.390Z,1018.55
2016-08-15T04:33:16.118Z,1018.46
2016-08-15T04:38:14.197Z,1018.43
2016-08-15T04:43:11.846Z,1018.54
2016-08-15T04:48:09.643Z,1018.53
2016-08-15T04:53:07.415Z,1018.52
2016-08-15T04:58:05.031Z,1018.53
2016-08-15T05:03:02.662Z,1018.56
2016-08-15T05:08:00.443Z,1018.53
2016-08-15T05:12:58.245Z,1018.42
2016-08-15T05:17:55.934Z,1018.39
2016-08-15T05:22:53.684Z,1018.41
2016-08-15T05:27:51.464Z,1018.48
2016-08-15T05:32:49.456Z,1018.51
2016-08-15T05:37:47.009Z,1018.53
2016-08-15T05:42:44.907Z,1018.60
2016-08-15T05:47:42.779Z,1018.57
2016-08-15T05:52:40.624Z,1018.59
2016-08-15T05:57:38.183Z,1018.65
2016-08-15T06:02:35.993Z,1018.66
2016-08-15T06:07:33.726Z,1018.67
2016-08-15T06:12:31.583Z,1018.75
2016-08-15T06:17:29.288Z,1018.76
2016-08-15T06:22:26.977Z,1018.73
2016-08-15T06:27:24.678Z,1018.66
2016-08-15T06:32:22.443Z,1018.70
2016-08-15T06:37:20.261Z,1018.77
2016-08-15T06:42:18.120Z,1018.80
2016-08-15T06:47:15.961Z,1018.68
2016-08-15T06:52:13.547Z,1018.77
2016-08-15T06:57:11.037Z,1018.69
2016-08-15T07:02:08.739Z,1018.72
2016-08-15T07:07:06.353Z,1018.75
2016-08-15T07:12:04.252Z,1018.75
2016-08-15T07:17:01.976Z,1018.74
2016-08-15T07:21:59.656Z,1018.75
2016-08-15T07:26:57.595Z,1018.71
2016-08-15T07:31:55.118Z,1018.70
2016-08-15T07:36:53.135Z,1018.78
2016-08-15T07:41:50.640Z,1018.69
2016-08-15T07:46:48.816Z,1018.66
2016-08-15T07:51:46.305Z,1018.67
2016-08-15T07:56:44.242Z,1018.72
2016-08-15T08:01:42.161Z,1018.66
2016-08-15T08:06:39.894Z,1018.67
2016-08-15T08:11:37.888Z,1018.70
2016-08-15T08:16:36.370Z,1018.72
2016-08-15T08:21:34.483Z,1018.66
2016-08-15T08:26:32.735Z,1018.67
2016-08-15T08:31:30.680Z,1018.60
2016-08-15T08:36:28.754Z,1018.64
2016-08-15T08:41:26.592Z,1018.55
2016-08-15T08:46:24.205Z,1018.51
2016-08-15T08:51:22.139Z,1018.54
2016-08-15T08:56:19.452Z,1018.53
2016-08-15T09:01:16.932Z,1018.47
2016-08-15T09:06:14.355Z,1018.43
2016-08-15T09:11:11.909Z,1018.29
2016-08-15T09:16:09.612Z,1018.44
2016-08-15T09:21:07.596Z,1018.34
2016-08-15T09:26:05.257Z,1018.33
2016-08-15T09:31:03.007Z,1018.25
2016-08-15T09:36:00.736Z,1018.29
2016-08-15T09:40:58.484Z,1018.25
2016-08-15T09:45:56.384Z,1018.25
2016-08-15T09:50:53.971Z,1018.20
2016-08-15T09:55:51.448Z,1018.16
2016-08-15T10:00:48.954Z,1018.19
2016-08-15T10:05:46.976Z,1018.13
2016-08-15T10:10:44.564Z,1018.11
2016-08-15T10:15:42.370Z,1018.05
2016-08-15T10:20:40.251Z,1018.12
2016-08-15T10:25:37.805Z,1018.06
2016-08-15T10:30:35.589Z,1018.13
2016-08-15T10:35:33.339Z,1018.11
2016-08-15T10:40:30.991Z,1018.13
2016-08-15T10:45:28.589Z,1018.11
2016-08-15T10:50:26.332Z,1018.00
2016-08-15T10:55:23.918Z,1018.11
2016-08-15T11:00:21.506Z,1018.12
2016-08-15T11:05:19.101Z,1018.03
2016-08-15T11:10:16.834Z,1018.03
2016-08-15T11:15:14.392Z,1017.93
2016-08-15T11:20:12.062Z,1017.93
2016-08-15T11:25:09.751Z,1017.90
2016-08-15T11:30:07.379Z,1017.87
2016-08-15T11:35:05.049Z,1017.85
2016-08-15T11:40:02.501Z,1018.00
2016-08-15T11:45:00.093Z,1018.05
2016-08-15T11:49:57.811Z,1018.00
2016-08-15T11:54:55.686Z,1018.05
2016-08-15T11:59:53.195Z,1017.99
2016-08-15T12:04:51.063Z,1017.81
2016-08-15T12:09:48.864Z,1017.85
2016-08-15T12:14:46.522Z,1017.83
2016-08-15T12:19:44.218Z,1017.81
2016-08-15T12:24:41.977Z,1017.72
2016-08-15T12:29:39.680Z,1017.71
2016-08-15T12:34:37.230Z,1017.74
2016-08-15T12:39:34.871Z,1017.77
2016-08-15T12:44:32.468Z,1017.77
2016-08-15T12:49:30.006Z,1017.76
2016-08-15T12:54:27.595Z,1017.69
2016-08-15T12:59:25.264Z,1017.77
2016-08-15T13:04:22.877Z,1017.58
2016-08-15T13:09:20.437Z,1017.66
2016-08-15T13:14:18.179Z,1017.57
2016-08-15T13:19:16.681Z,1017.63
2016-08-15T13:24:14.039Z,1017.57
2016-08-15T13:29:11.806Z,1017.58
2016-08-15T13:34:09.422Z,1017.52
2016-08-15T13:39:07.061Z,1017.47
2016-08-15T13:44:04.557Z,1017.51
2016-08-15T13:49:02.105Z,1017.44
2016-08-15T13:53:59.604Z,1017.43
2016-08-15T13:58:57.196Z,1017.45
2016-08-15T14:03:54.776Z,1017.39
2016-08-15T14:08:53.070Z,1017.37
2016-08-15T14:13:50.977Z,1017.28
2016-08-15T14:18:48.483Z,1017.29
2016-08-15T14:23:45.955Z,1017.25
2016-08-15T14:28:43.712Z,1017.32
2016-08-15T14:33:41.385Z,1017.33
2016-08-15T14:38:38.995Z,1017.25
2016-08-15T14:43:37.095Z,1017.26
2016-08-15T14:48:34.635Z,1017.21
2016-08-15T14:53:32.045Z,1017.16
2016-08-15T14:58:29.670Z,1017.17
2016-08-15T15:03:27.260Z,1017.12
2016-08-15T15:08:25.700Z,1017.01
2016-08-15T15:13:23.164Z,1016.93
2016-08-15T15:18:20.754Z,1016.90
2016-08-15T15:23:18.429Z,1016.98
2016-08-15T15:28:16.087Z,1016.84
2016-08-15T15:33:13.777Z,1016.89
2016-08-15T15:38:11.360Z,1016.81
2016-08-15T15:43:09.144Z,1016.65
2016-08-15T15:48:06.613Z,1016.73
2016-08-15T15:53:04.281Z,1016.68
2016-08-15T15:58:01.881Z,1016.63
2016-08-15T16:02:59.594Z,1016.61
2016-08-15T16:07:57.275Z,1016.53
2016-08-15T16:12:54.749Z,1016.50
2016-08-15T16:17:52.302Z,1016.45
2016-08-15T16:22:49.927Z,1016.37
2016-08-15T16:27:47.723Z,1016.50
2016-08-15T16:32:45.444Z,1016.47
2016-08-15T16:37:43.015Z,1016.28
2016-08-15T16:42:40.878Z,1016.25
2016-08-15T16:47:38.351Z,1016.25
2016-08-15T16:52:36.157Z,1016.24
2016-08-15T16:57:33.633Z,1016.20
2016-08-15T17:02:31.275Z,1016.27
2016-08-15T17:07:29.125Z,1016.21
2016-08-15T17:12:26.856Z,1016.16
2016-08-15T17:17:24.547Z,1016.25
2016-08-15T17:22:22.218Z,1016.09
2016-08-15T17:27:19.829Z,1016.15
2016-08-15T17:32:17.412Z,1016.16
2016-08-15T17:37:15.277Z,1016.17
2016-08-15T17:42:12.947Z,1016.13
2016-08-15T17:47:10.564Z,1016.18
2016-08-15T17:52:08.166Z,1016.16
2016-08-15T17:57:05.937Z,1015.98
2016-08-15T18:02:03.310Z,1016.09
2016-08-15T18:07:00.794Z,1016.06
2016-08-15T18:11:58.398Z,1016.05
2016-08-15T18:16:56.015Z,1016.01
2016-08-15T18:21:53.522Z,1016.11
2016-08-15T18:26:51.108Z,1015.99
2016-08-15T18:31:48.804Z,1016.03
2016-08-15T18:36:46.557Z,1016.05
2016-08-15T18:41:44.080Z,1016.03
2016-08-15T18:46:41.574Z,1016.04
2016-08-15T18:51:39.337Z,1016.10
2016-08-15T18:56:36.611Z,1016.14
2016-08-15T19:01:34.141Z,1016.13
2016-08-15T19:06:31.723Z,1016.13
2016-08-15T19:11:29.362Z,1016.12
2016-08-15T19:16:27.285Z,1016.10
2016-08-15T19:21:24.782Z,1016.14
2016-08-15T19:26:22.320Z,1016.18
2016-08-15T19:31:19.733Z,1016.16
2016-08-15T19:36:17.305Z,1016.18
2016-08-15T19:41:14.959Z,1016.15
2016-08-15T19:46:12.612Z,1016.13
2016-08-15T19:51:10.136Z,1016.04
2016-08-15T19:56:07.955Z,1015.95
2016-08-15T20:01:05.606Z,1015.99
2016-08-15T20:06:03.622Z,1015.98
2016-08-15T20:11:01.235Z,1016.05
2016-08-15T20:15:58.652Z,1016.01
2016-08-15T20:20:56.238Z,1016.09
2016-08-15T20:25:53.928Z,1016.12
2016-08-15T20:30:51.702Z,1016.10
2016-08-15T20:35:49.313Z,1016.04
2016-08-15T20:40:46.959Z,1016.05
2016-08-15T20:45:44.674Z,1016.02
2016-08-15T20:50:42.353Z,1016.03
2016-08-15T20:55:40.152Z,1016.05
2016-08-15T21:00:37.623Z,1016.03
2016-08-15T21:05:35.265Z,1016.04
2016-08-15T21:10:32.967Z,1016.12
2016-08-15T21:15:30.502Z,1016.15
2016-08-15T21:20:27.975Z,1016.15
2016-08-15T21:25:25.432Z,1016.14
2016-08-15T21:30:23.145Z,1016.15
2016-08-15T21:35:20.870Z,1016.14
2016-08-15T21:40:18.772Z,1016.18
2016-08-15T21:45:16.443Z,1016.14
2016-08-15T21:50:14.074Z,1016.10
2016-08-15T21:55:11.703Z,1016.14
2016-08-15T22:00:09.297Z,1016.15
2016-08-15T22:05:07.150Z,1016.11
2016-08-15T22:10:04.756Z,1016.29
2016-08-15T22:15:02.702Z,1016.19
2016-08-15T22:20:00.289Z,1016.26
2016-08-15T22:24:58.066Z,1016.27
2016-08-15T22:29:55.717Z,1016.31
2016-08-15T22:34:53.440Z,1016.20
2016-08-15T22:39:51.289Z,1016.22
2016-08-15T22:44:49.058Z,1016.15
2016-08-15T22:49:46.701Z,1016.17
2016-08-15T22:54:44.597Z,1016.13
2016-08-15T22:59:42.131Z,1016.22
2016-08-15T23:04:39.650Z,1016.22
2016-08-15T23:09:37.294Z,1016.14
2016-08-15T23:14:34.973Z,1016.23
2016-08-15T23:19:32.472Z,1016.17
2016-08-15T23:24:30.377Z,1016.13
2016-08-15T23:29:28.220Z,1016.11
2016-08-15T23:34:26.020Z,1016.09
2016-08-15T23:39:23.908Z,1016.11
2016-08-15T23:44:21.502Z,1016.10
2016-08-15T23:49:19.123Z,1016.07
2016-08-15T23:54:16.618Z,1016.07
2016-08-15T23:59:14.343Z,1016.06
